createdAt,value
2023-09-28T00:00:33.918Z,97.49
2023-09-28T00:01:33.939Z,97.39
2023-09-28T00:02:33.977Z,97.39
2023-09-28T00:03:33.942Z,97.49
2023-09-28T00:04:33.895Z,97.60
2023-09-28T00:05:33.869Z,97.60
2023-09-28T00:06:33.859Z,97.69
2023-09-28T00:07:33.865Z,97.80
2023-09-28T00:08:33.862Z,97.80
2023-09-28T00:09:33.838Z,97.90
2023-09-28T00:10:33.823Z,98.10
2023-09-28T00:11:33.806Z,98.00
2023-09-28T00:12:33.792Z,98.00
2023-09-28T00:13:33.792Z,98.00
2023-09-28T00:14:33.763Z,98.00
2023-09-28T00:15:33.765Z,98.10
2023-09-28T00:16:33.787Z,98.00
2023-09-28T00:17:33.822Z,97.69
2023-09-28T00:18:34.649Z,97.69
2023-09-28T00:19:33.712Z,97.60
2023-09-28T00:20:33.730Z,97.60
2023-09-28T00:21:33.690Z,97.69
2023-09-28T00:22:33.684Z,97.80
2023-09-28T00:23:33.683Z,97.90
2023-09-28T00:24:33.653Z,97.90
2023-09-28T00:25:33.649Z,97.90
2023-09-28T00:26:33.633Z,97.90
2023-09-28T00:27:33.640Z,97.90
2023-09-28T00:28:33.615Z,98.00
2023-09-28T00:29:33.611Z,98.00
2023-09-28T00:30:33.590Z,98.10
2023-09-28T00:31:33.582Z,98.20
2023-09-28T00:32:33.618Z,98.30
2023-09-28T00:33:33.566Z,98.20
2023-09-28T00:34:33.548Z,98.20
2023-09-28T00:35:33.559Z,98.20
2023-09-28T00:36:33.536Z,98.00
2023-09-28T00:37:33.530Z,98.00
2023-09-28T00:38:33.503Z,97.90
2023-09-28T00:39:33.495Z,97.90
2023-09-28T00:40:33.536Z,97.80
2023-09-28T00:41:33.504Z,97.90
2023-09-28T00:42:33.457Z,97.90
2023-09-28T00:43:33.454Z,98.00
2023-09-28T00:44:33.435Z,98.10
2023-09-28T00:45:33.436Z,98.14
2023-09-28T00:46:33.541Z,98.14
2023-09-28T00:47:33.480Z,98.14
2023-09-28T00:48:33.393Z,98.25
2023-09-28T00:49:33.388Z,98.35
2023-09-28T00:50:33.384Z,98.55
2023-09-28T00:51:33.385Z,98.65
2023-09-28T00:52:33.351Z,98.65
2023-09-28T00:53:33.359Z,98.75
2023-09-28T00:54:33.329Z,98.75
2023-09-28T00:55:33.348Z,98.75
2023-09-28T00:56:33.403Z,98.75
2023-09-28T00:57:33.299Z,98.96
2023-09-28T00:58:33.286Z,98.96
2023-09-28T00:59:33.277Z,98.96
2023-09-28T01:00:33.715Z,99.16
2023-09-28T01:01:33.259Z,99.16
2023-09-28T01:02:33.277Z,99.16
2023-09-28T01:03:33.267Z,99.16
2023-09-28T01:04:33.224Z,99.26
2023-09-28T01:05:33.237Z,99.26
2023-09-28T01:06:33.197Z,99.26
2023-09-28T01:07:33.184Z,99.26
2023-09-28T01:08:33.167Z,99.26
2023-09-28T01:09:33.196Z,99.16
2023-09-28T01:10:33.149Z,99.16
2023-09-28T01:11:33.144Z,99.16
2023-09-28T01:12:33.123Z,99.26
2023-09-28T01:13:33.122Z,99.16
2023-09-28T01:14:33.117Z,99.16
2023-09-28T01:15:33.100Z,99.26
2023-09-28T01:16:33.098Z,99.26
2023-09-28T01:17:33.572Z,99.26
2023-09-28T01:18:33.073Z,99.36
2023-09-28T01:19:33.058Z,99.36
2023-09-28T01:20:33.037Z,99.26
2023-09-28T01:21:33.029Z,99.36
2023-09-28T01:22:33.013Z,99.36
2023-09-28T01:23:33.015Z,99.36
2023-09-28T01:24:32.994Z,99.36
2023-09-28T01:25:32.983Z,99.36
2023-09-28T01:26:32.982Z,99.26
2023-09-28T01:27:32.968Z,99.26
2023-09-28T01:28:32.961Z,99.26
2023-09-28T01:29:32.940Z,99.21
2023-09-28T01:30:32.962Z,99.21
2023-09-28T01:31:32.917Z,99.32
2023-09-28T01:32:32.922Z,99.32
2023-09-28T01:33:32.938Z,99.32
2023-09-28T01:34:32.881Z,99.32
2023-09-28T01:35:32.880Z,99.41
2023-09-28T01:36:32.857Z,99.32
2023-09-28T01:37:32.863Z,99.32
2023-09-28T01:38:32.840Z,99.32
2023-09-28T01:39:32.834Z,99.32
2023-09-28T01:40:32.841Z,99.32
2023-09-28T01:41:32.808Z,99.41
2023-09-28T01:42:32.806Z,99.32
2023-09-28T01:43:32.791Z,99.32
2023-09-28T01:44:32.770Z,99.32
2023-09-28T01:45:32.767Z,99.32
2023-09-28T01:46:32.780Z,99.32
2023-09-28T01:47:32.787Z,99.32
2023-09-28T01:48:32.736Z,99.32
2023-09-28T01:49:32.721Z,99.32
2023-09-28T01:50:32.712Z,99.41
2023-09-28T01:51:32.720Z,99.41
2023-09-28T01:52:32.687Z,99.52
2023-09-28T01:53:32.680Z,99.52
2023-09-28T01:54:32.667Z,99.41
2023-09-28T01:55:32.665Z,99.41
2023-09-28T01:56:32.651Z,99.32
2023-09-28T01:57:32.637Z,99.21
2023-09-28T01:58:32.643Z,99.21
2023-09-28T01:59:32.613Z,99.21
2023-09-28T02:00:32.614Z,99.21
2023-09-28T02:01:32.644Z,99.21
2023-09-28T02:02:32.641Z,99.21
2023-09-28T02:03:32.568Z,99.21
2023-09-28T02:04:32.552Z,99.21
2023-09-28T02:05:32.593Z,99.21
2023-09-28T02:06:32.526Z,99.21
2023-09-28T02:07:32.521Z,99.11
2023-09-28T02:08:32.508Z,99.11
2023-09-28T02:09:32.504Z,99.11
2023-09-28T02:10:32.508Z,99.21
2023-09-28T02:11:32.477Z,99.21
2023-09-28T02:12:32.472Z,99.11
2023-09-28T02:13:32.453Z,99.11
2023-09-28T02:14:32.461Z,99.11
2023-09-28T02:15:32.453Z,99.11
2023-09-28T02:16:32.434Z,99.11
2023-09-28T02:17:32.439Z,99.11
2023-09-28T02:18:32.404Z,99.11
2023-09-28T02:19:32.400Z,99.11
2023-09-28T02:20:32.405Z,99.21
2023-09-28T02:21:32.370Z,99.11
2023-09-28T02:22:32.363Z,98.91
2023-09-28T02:23:32.358Z,98.81
2023-09-28T02:24:32.364Z,98.81
2023-09-28T02:25:32.341Z,98.81
2023-09-28T02:26:32.321Z,98.81
2023-09-28T02:27:32.306Z,98.81
2023-09-28T02:28:32.313Z,98.81
2023-09-28T02:29:32.299Z,98.81
2023-09-28T02:30:33.112Z,98.81
2023-09-28T02:31:32.302Z,98.81
2023-09-28T02:32:32.358Z,98.81
2023-09-28T02:33:32.426Z,98.91
2023-09-28T02:34:32.234Z,98.91
2023-09-28T02:35:32.226Z,98.91
2023-09-28T02:36:32.224Z,98.91
2023-09-28T02:37:32.209Z,99.01
2023-09-28T02:38:32.219Z,99.01
2023-09-28T02:39:32.181Z,99.11
2023-09-28T02:40:32.173Z,99.11
2023-09-28T02:41:32.174Z,99.21
2023-09-28T02:42:32.156Z,99.21
2023-09-28T02:43:32.129Z,99.26
2023-09-28T02:44:32.123Z,99.32
2023-09-28T02:45:32.142Z,99.46
2023-09-28T02:46:32.098Z,99.56
2023-09-28T02:47:32.127Z,99.56
2023-09-28T02:48:32.076Z,99.66
2023-09-28T02:49:32.067Z,99.66
2023-09-28T02:50:32.050Z,99.56
2023-09-28T02:51:32.056Z,99.46
2023-09-28T02:52:32.047Z,99.46
2023-09-28T02:53:32.027Z,99.36
2023-09-28T02:54:32.008Z,99.16
2023-09-28T02:55:32.004Z,99.16
2023-09-28T02:56:31.997Z,99.05
2023-09-28T02:57:31.979Z,99.05
2023-09-28T02:58:31.965Z,99.16
2023-09-28T02:59:31.962Z,99.16
2023-09-28T03:00:32.041Z,99.16
2023-09-28T03:01:31.988Z,99.26
2023-09-28T03:02:31.970Z,99.26
2023-09-28T03:03:31.966Z,99.26
2023-09-28T03:04:31.900Z,99.26
2023-09-28T03:05:31.915Z,99.26
2023-09-28T03:06:31.889Z,99.36
2023-09-28T03:07:31.875Z,99.36
2023-09-28T03:08:31.856Z,99.46
2023-09-28T03:09:31.846Z,99.46
2023-09-28T03:10:31.857Z,99.46
2023-09-28T03:11:31.830Z,99.56
2023-09-28T03:12:31.811Z,99.56
2023-09-28T03:13:31.814Z,99.56
2023-09-28T03:14:31.793Z,99.66
2023-09-28T03:15:31.809Z,99.66
2023-09-28T03:16:31.801Z,99.77
2023-09-28T03:17:31.795Z,99.81
2023-09-28T03:18:31.749Z,99.87
2023-09-28T03:19:31.750Z,99.87
2023-09-28T03:20:31.739Z,99.87
2023-09-28T03:21:31.733Z,99.99
2023-09-28T03:22:31.707Z,99.99
2023-09-28T03:23:31.694Z,99.99
2023-09-28T03:24:31.698Z,99.99
2023-09-28T03:25:31.704Z,99.99
2023-09-28T03:26:31.680Z,99.99
2023-09-28T03:27:31.648Z,99.99
2023-09-28T03:28:31.666Z,99.99
2023-09-28T03:29:31.639Z,99.99
2023-09-28T03:30:31.621Z,99.99
2023-09-28T03:31:34.079Z,99.99
2023-09-28T03:32:31.728Z,99.99
2023-09-28T03:33:31.604Z,99.99
2023-09-28T03:34:31.575Z,99.99
2023-09-28T03:35:31.553Z,99.99
2023-09-28T03:36:31.590Z,99.99
2023-09-28T03:37:31.535Z,99.99
2023-09-28T03:38:31.537Z,99.99
2023-09-28T03:39:31.522Z,99.99
2023-09-28T03:40:31.495Z,99.99
2023-09-28T03:41:31.486Z,99.99
2023-09-28T03:42:31.470Z,99.99
2023-09-28T03:43:31.479Z,99.99
2023-09-28T03:44:31.451Z,99.99
2023-09-28T03:45:31.448Z,99.99
2023-09-28T03:46:31.428Z,99.99
2023-09-28T03:47:31.460Z,99.99
2023-09-28T03:48:31.418Z,99.99
2023-09-28T03:49:31.397Z,99.99
2023-09-28T03:50:31.389Z,99.99
2023-09-28T03:51:31.381Z,99.99
2023-09-28T03:52:31.487Z,99.99
2023-09-28T03:53:31.356Z,99.99
2023-09-28T03:54:31.337Z,99.99
2023-09-28T03:55:31.333Z,99.99
2023-09-28T03:56:31.335Z,99.99
2023-09-28T03:57:31.323Z,99.99
2023-09-28T03:58:31.294Z,99.99
2023-09-28T03:59:31.295Z,99.99
2023-09-28T04:00:31.272Z,99.99
2023-09-28T04:01:31.350Z,99.99
2023-09-28T04:02:31.342Z,99.99
2023-09-28T04:03:31.259Z,99.99
2023-09-28T04:04:31.244Z,99.99
2023-09-28T04:05:31.217Z,99.99
2023-09-28T04:06:31.223Z,99.99
2023-09-28T04:07:31.196Z,99.99
2023-09-28T04:08:31.211Z,99.99
2023-09-28T04:09:31.178Z,99.99
2023-09-28T04:10:31.174Z,99.99
2023-09-28T04:11:31.185Z,99.99
2023-09-28T04:12:31.135Z,99.99
2023-09-28T04:13:31.157Z,99.99
2023-09-28T04:14:31.124Z,99.99
2023-09-28T04:15:31.133Z,99.99
2023-09-28T04:16:31.141Z,99.99
2023-09-28T04:17:31.176Z,99.99
2023-09-28T04:18:31.072Z,99.99
2023-09-28T04:19:31.067Z,99.99
2023-09-28T04:20:31.118Z,99.99
2023-09-28T04:21:31.043Z,99.99
2023-09-28T04:22:31.035Z,99.99
2023-09-28T04:23:31.054Z,99.99
2023-09-28T04:24:31.016Z,99.99
2023-09-28T04:25:31.009Z,99.99
2023-09-28T04:26:30.999Z,99.99
2023-09-28T04:27:30.975Z,99.99
2023-09-28T04:28:30.967Z,99.99
2023-09-28T04:29:30.970Z,99.99
2023-09-28T04:30:30.941Z,99.99
2023-09-28T04:31:31.045Z,99.99
2023-09-28T04:32:30.951Z,99.99
2023-09-28T04:33:30.910Z,99.99
2023-09-28T04:34:30.907Z,99.99
2023-09-28T04:35:30.904Z,99.99
2023-09-28T04:36:30.884Z,99.99
2023-09-28T04:37:30.871Z,99.99
2023-09-28T04:38:30.862Z,99.99
2023-09-28T04:39:30.858Z,99.99
2023-09-28T04:40:30.833Z,99.99
2023-09-28T04:41:30.832Z,99.99
2023-09-28T04:42:30.811Z,99.99
2023-09-28T04:43:30.815Z,99.99
2023-09-28T04:44:30.785Z,99.99
2023-09-28T04:45:30.786Z,99.99
2023-09-28T04:46:30.787Z,99.99
2023-09-28T04:47:30.828Z,99.99
2023-09-28T04:48:30.752Z,99.99
2023-09-28T04:49:30.732Z,99.99
2023-09-28T04:50:30.729Z,99.99
2023-09-28T04:51:30.714Z,99.99
2023-09-28T04:52:30.708Z,99.99
2023-09-28T04:53:30.699Z,99.99
2023-09-28T04:54:30.684Z,99.99
2023-09-28T04:55:30.674Z,99.99
2023-09-28T04:56:30.650Z,99.99
2023-09-28T04:57:30.660Z,99.99
2023-09-28T04:58:30.642Z,99.99
2023-09-28T04:59:30.660Z,99.99
2023-09-28T05:00:30.610Z,99.99
2023-09-28T05:01:30.606Z,99.99
2023-09-28T05:02:30.837Z,99.99
2023-09-28T05:03:30.597Z,99.99
2023-09-28T05:04:30.564Z,99.99
2023-09-28T05:05:30.562Z,99.99
2023-09-28T05:06:30.554Z,99.99
2023-09-28T05:07:30.556Z,99.99
2023-09-28T05:08:30.516Z,99.99
2023-09-28T05:09:30.510Z,99.99
2023-09-28T05:10:30.511Z,99.99
2023-09-28T05:11:30.511Z,99.99
2023-09-28T05:12:30.479Z,99.99
2023-09-28T05:13:30.465Z,99.99
2023-09-28T05:14:30.496Z,99.99
2023-09-28T05:15:30.480Z,99.99
2023-09-28T05:16:30.477Z,99.99
2023-09-28T05:17:30.472Z,99.99
2023-09-28T05:18:30.421Z,99.99
2023-09-28T05:19:30.401Z,99.99
2023-09-28T05:20:30.446Z,99.99
2023-09-28T05:21:30.458Z,99.99
2023-09-28T05:22:30.372Z,99.99
2023-09-28T05:23:30.352Z,99.99
2023-09-28T05:24:30.355Z,99.99
2023-09-28T05:25:32.992Z,99.99
2023-09-28T05:26:30.397Z,99.99
2023-09-28T05:27:30.314Z,99.99
2023-09-28T05:28:30.303Z,99.99
2023-09-28T05:29:30.304Z,99.99
2023-09-28T05:30:30.296Z,99.99
2023-09-28T05:31:30.275Z,99.99
2023-09-28T05:32:30.357Z,99.99
2023-09-28T05:33:30.238Z,99.99
2023-09-28T05:34:30.255Z,99.99
2023-09-28T05:35:30.291Z,99.99
2023-09-28T05:36:30.214Z,99.99
2023-09-28T05:37:30.207Z,99.99
2023-09-28T05:38:30.189Z,99.99
2023-09-28T05:39:30.208Z,99.99
2023-09-28T05:40:30.162Z,99.99
2023-09-28T05:41:30.151Z,99.99
2023-09-28T05:42:30.198Z,99.99
2023-09-28T05:43:30.128Z,99.99
2023-09-28T05:44:30.171Z,99.99
2023-09-28T05:45:30.137Z,99.99
2023-09-28T05:46:30.109Z,99.99
2023-09-28T05:47:30.091Z,99.99
2023-09-28T05:48:30.092Z,99.99
2023-09-28T05:49:30.077Z,99.99
2023-09-28T05:50:30.084Z,99.99
2023-09-28T05:51:30.044Z,99.99
2023-09-28T05:52:30.033Z,99.99
2023-09-28T05:53:30.215Z,99.99
2023-09-28T05:54:30.012Z,99.99
2023-09-28T05:55:30.014Z,99.99
2023-09-28T05:56:30.039Z,99.99
2023-09-28T05:57:29.977Z,99.99
2023-09-28T05:58:29.986Z,99.99
2023-09-28T05:59:30.005Z,99.99
2023-09-28T06:00:29.945Z,99.99
2023-09-28T06:01:29.946Z,99.99
2023-09-28T06:02:30.016Z,99.99
2023-09-28T06:03:29.941Z,99.99
2023-09-28T06:04:29.895Z,99.99
2023-09-28T06:05:29.881Z,99.99
2023-09-28T06:06:29.895Z,99.99
2023-09-28T06:07:29.871Z,99.99
2023-09-28T06:08:29.886Z,99.99
2023-09-28T06:09:29.838Z,99.99
2023-09-28T06:10:29.830Z,99.99
2023-09-28T06:11:29.851Z,99.99
2023-09-28T06:12:29.816Z,99.99
2023-09-28T06:13:29.792Z,99.99
2023-09-28T06:14:29.819Z,99.99
2023-09-28T06:15:29.770Z,99.99
2023-09-28T06:16:29.821Z,99.99
2023-09-28T06:17:29.866Z,99.99
2023-09-28T06:18:29.741Z,99.99
2023-09-28T06:19:29.725Z,99.99
2023-09-28T06:20:29.779Z,99.99
2023-09-28T06:21:29.720Z,99.99
2023-09-28T06:22:29.716Z,99.99
2023-09-28T06:23:29.780Z,99.99
2023-09-28T06:24:29.669Z,99.99
2023-09-28T06:25:29.661Z,99.99
2023-09-28T06:26:42.075Z,99.99
2023-09-28T06:27:29.730Z,99.99
2023-09-28T06:28:29.637Z,99.99
2023-09-28T06:29:29.648Z,99.99
2023-09-28T06:30:29.724Z,99.96
2023-09-28T06:31:29.639Z,99.35
2023-09-28T06:32:29.657Z,98.80
2023-09-28T06:33:29.576Z,98.39
2023-09-28T06:34:29.564Z,97.74
2023-09-28T06:35:29.597Z,97.24
2023-09-28T06:37:29.528Z,96.69
2023-09-28T06:38:29.542Z,96.38
2023-09-28T06:39:29.503Z,96.69
2023-09-28T06:40:29.509Z,96.98
2023-09-28T06:41:29.572Z,97.19
2023-09-28T06:42:37.150Z,97.49
2023-09-28T06:43:29.467Z,97.60
2023-09-28T06:44:29.530Z,97.80
2023-09-28T06:45:29.449Z,98.10
2023-09-28T06:46:29.436Z,98.01
2023-09-28T06:47:38.229Z,97.01
2023-09-28T06:48:29.534Z,94.29
2023-09-28T06:49:29.409Z,91.99
2023-09-28T06:50:29.409Z,90.09
2023-09-28T06:51:29.381Z,89.14
2023-09-28T06:52:29.366Z,87.41
2023-09-28T06:53:29.413Z,85.52
2023-09-28T06:54:29.363Z,83.97
2023-09-28T06:55:29.338Z,82.39
2023-09-28T06:56:29.336Z,81.01
2023-09-28T06:57:29.306Z,79.60
2023-09-28T06:58:29.316Z,80.11
2023-09-28T06:59:29.336Z,81.32
2023-09-28T07:00:29.280Z,83.61
2023-09-28T07:01:29.286Z,85.05
2023-09-28T07:02:29.338Z,86.00
2023-09-28T07:03:29.278Z,87.59
2023-09-28T07:04:29.232Z,88.39
2023-09-28T07:05:29.306Z,89.00
2023-09-28T07:06:29.216Z,89.15
2023-09-28T07:07:29.202Z,87.32
2023-09-28T07:08:29.263Z,84.63
2023-09-28T07:09:29.181Z,82.24
2023-09-28T07:10:29.168Z,81.41
2023-09-28T07:11:29.217Z,80.23
2023-09-28T07:12:29.194Z,79.63
2023-09-28T07:13:29.152Z,79.59
2023-09-28T07:14:29.169Z,78.05
2023-09-28T07:15:29.116Z,77.02
2023-09-28T07:16:29.123Z,77.75
2023-09-28T07:17:29.184Z,77.72
2023-09-28T07:18:29.088Z,77.25
2023-09-28T07:19:29.070Z,79.13
2023-09-28T07:20:29.102Z,78.85
2023-09-28T07:21:29.050Z,77.86
2023-09-28T07:22:29.046Z,78.05
2023-09-28T07:23:29.101Z,79.09
2023-09-28T07:24:29.009Z,79.33
2023-09-28T07:25:29.154Z,80.53
2023-09-28T07:26:29.020Z,79.09
2023-09-28T07:27:28.991Z,79.29
2023-09-28T07:28:28.970Z,78.49
2023-09-28T07:29:29.019Z,77.95
2023-09-28T07:30:28.942Z,77.79
2023-09-28T07:31:28.961Z,78.29
2023-09-28T07:32:29.010Z,78.39
2023-09-28T07:33:29.068Z,78.39
2023-09-28T07:34:28.905Z,78.89
2023-09-28T07:35:28.965Z,78.59
2023-09-28T07:36:28.884Z,77.79
2023-09-28T07:37:28.868Z,78.39
2023-09-28T07:38:28.882Z,78.59
2023-09-28T07:39:28.850Z,78.93
2023-09-28T07:40:46.158Z,79.63
2023-09-28T07:41:28.898Z,79.09
2023-09-28T07:42:28.810Z,79.83
2023-09-28T07:43:28.811Z,79.29
2023-09-28T07:44:28.854Z,78.52
2023-09-28T07:45:28.843Z,77.38
2023-09-28T07:46:28.783Z,78.02
2023-09-28T07:47:28.837Z,77.72
2023-09-28T07:48:28.758Z,77.38
2023-09-28T07:49:28.742Z,77.38
2023-09-28T07:50:28.772Z,77.51
2023-09-28T07:51:28.728Z,77.72
2023-09-28T07:52:28.706Z,78.85
2023-09-28T07:53:28.709Z,79.83
2023-09-28T07:54:28.700Z,81.17
2023-09-28T07:55:28.696Z,82.45
2023-09-28T07:56:28.739Z,82.75
2023-09-28T07:57:39.931Z,83.69
2023-09-28T07:58:30.324Z,84.74
2023-09-28T07:59:28.706Z,85.33
2023-09-28T08:00:28.642Z,85.08
2023-09-28T08:01:28.660Z,85.78
2023-09-28T08:02:28.755Z,86.08
2023-09-28T08:03:28.663Z,86.72
2023-09-28T08:04:28.587Z,86.52
2023-09-28T08:05:28.673Z,86.32
2023-09-28T08:06:31.285Z,85.97
2023-09-28T08:07:28.538Z,86.38
2023-09-28T08:08:28.570Z,86.58
2023-09-28T08:09:28.526Z,86.38
2023-09-28T08:10:28.505Z,86.58
2023-09-28T08:11:28.545Z,85.97
2023-09-28T08:12:28.519Z,86.28
2023-09-28T08:13:28.483Z,86.58
2023-09-28T08:14:28.513Z,85.88
2023-09-28T08:15:36.163Z,85.97
2023-09-28T08:16:28.601Z,85.68
2023-09-28T08:17:28.509Z,86.44
2023-09-28T08:18:28.459Z,86.44
2023-09-28T08:19:28.948Z,86.74
2023-09-28T08:20:28.437Z,87.04
2023-09-28T08:21:28.386Z,86.84
2023-09-28T08:22:28.392Z,86.14
2023-09-28T08:23:28.415Z,85.63
2023-09-28T08:24:28.354Z,86.24
2023-09-28T08:25:28.341Z,86.44
2023-09-28T08:26:28.382Z,85.33
2023-09-28T08:27:28.361Z,85.44
2023-09-28T08:28:28.311Z,85.44
2023-09-28T08:29:28.380Z,84.63
2023-09-28T08:30:28.289Z,85.39
2023-09-28T08:31:28.318Z,84.89
2023-09-28T08:32:28.446Z,84.99
2023-09-28T08:33:28.262Z,84.99
2023-09-28T08:34:38.462Z,85.30
2023-09-28T08:35:28.274Z,85.19
2023-09-28T08:36:28.235Z,84.59
2023-09-28T08:37:28.225Z,85.10
2023-09-28T08:38:28.262Z,85.19
2023-09-28T08:39:28.186Z,85.49
2023-09-28T08:40:28.182Z,85.49
2023-09-28T08:41:28.246Z,84.59
2023-09-28T08:42:28.154Z,85.19
2023-09-28T08:43:28.147Z,84.89
2023-09-28T08:44:28.173Z,84.99
2023-09-28T08:45:28.161Z,85.19
2023-09-28T08:46:44.240Z,85.46
2023-09-28T08:47:28.220Z,84.65
2023-09-28T08:48:28.124Z,85.25
2023-09-28T08:49:28.099Z,85.35
2023-09-28T08:50:28.241Z,85.15
2023-09-28T08:51:28.066Z,85.55
2023-09-28T08:52:28.048Z,85.55
2023-09-28T08:53:28.080Z,85.25
2023-09-28T08:54:28.025Z,85.11
2023-09-28T08:55:29.262Z,85.05
2023-09-28T08:56:28.078Z,84.85
2023-09-28T08:57:27.990Z,84.65
2023-09-28T08:58:27.984Z,84.95
2023-09-28T08:59:27.976Z,85.46
2023-09-28T09:00:27.978Z,84.55
2023-09-28T09:01:27.993Z,84.45
2023-09-28T09:02:28.009Z,84.25
2023-09-28T09:03:28.038Z,84.35
2023-09-28T09:04:30.460Z,84.15
2023-09-28T09:05:28.578Z,83.25
2023-09-28T09:06:27.896Z,83.65
2023-09-28T09:07:27.975Z,83.31
2023-09-28T09:08:27.911Z,83.01
2023-09-28T09:09:27.874Z,81.91
2023-09-28T09:10:27.866Z,82.71
2023-09-28T09:11:27.859Z,82.71
2023-09-28T09:12:27.830Z,83.11
2023-09-28T09:13:27.815Z,83.31
2023-09-28T09:14:27.937Z,83.91
2023-09-28T09:15:27.793Z,83.51
2023-09-28T09:16:27.785Z,83.11
2023-09-28T09:17:27.833Z,82.61
2023-09-28T09:18:27.813Z,82.21
2023-09-28T09:19:27.816Z,82.41
2023-09-28T09:20:27.776Z,82.41
2023-09-28T09:21:27.725Z,81.91
2023-09-28T09:22:27.727Z,83.21
2023-09-28T09:23:27.750Z,83.01
2023-09-28T09:24:27.724Z,82.51
2023-09-28T09:25:27.692Z,83.01
2023-09-28T09:26:27.705Z,83.31
2023-09-28T09:27:27.664Z,83.27
2023-09-28T09:28:27.803Z,82.77
2023-09-28T09:29:27.708Z,82.77
2023-09-28T09:30:27.641Z,83.07
2023-09-28T09:31:27.652Z,82.77
2023-09-28T09:32:27.796Z,82.87
2023-09-28T09:33:27.610Z,82.57
2023-09-28T09:34:27.598Z,82.97
2023-09-28T09:35:27.600Z,83.27
2023-09-28T09:36:27.572Z,82.53
2023-09-28T09:37:27.565Z,82.07
2023-09-28T09:38:27.603Z,82.27
2023-09-28T09:39:27.559Z,83.07
2023-09-28T09:40:27.528Z,82.77
2023-09-28T09:41:27.586Z,82.77
2023-09-28T09:42:27.537Z,82.97
2023-09-28T09:43:27.523Z,82.03
2023-09-28T09:44:27.581Z,81.53
2023-09-28T09:45:27.487Z,82.43
2023-09-28T09:46:27.511Z,82.23
2023-09-28T09:47:27.516Z,82.33
2023-09-28T09:48:27.497Z,82.49
2023-09-28T09:49:27.516Z,82.09
2023-09-28T09:50:27.437Z,81.09
2023-09-28T09:51:27.413Z,80.79
2023-09-28T09:52:27.398Z,81.09
2023-09-28T09:53:27.403Z,81.35
2023-09-28T09:54:27.374Z,80.95
2023-09-28T09:55:27.356Z,80.76
2023-09-28T09:56:27.420Z,80.85
2023-09-28T09:57:27.340Z,80.65
2023-09-28T09:58:27.329Z,81.35
2023-09-28T09:59:27.350Z,80.85
2023-09-28T10:00:27.316Z,81.25
2023-09-28T10:01:27.346Z,81.35
2023-09-28T10:02:27.336Z,81.45
2023-09-28T10:03:27.353Z,80.55
2023-09-28T10:04:27.262Z,80.79
2023-09-28T10:05:27.279Z,80.79
2023-09-28T10:06:27.241Z,80.99
2023-09-28T10:07:41.102Z,81.19
2023-09-28T10:08:27.256Z,80.39
2023-09-28T10:09:29.018Z,80.19
2023-09-28T10:10:27.209Z,80.89
2023-09-28T10:11:27.237Z,80.99
2023-09-28T10:12:27.172Z,81.09
2023-09-28T10:13:27.158Z,81.09
2023-09-28T10:14:27.354Z,80.29
2023-09-28T10:15:27.143Z,80.76
2023-09-28T10:16:27.150Z,80.45
2023-09-28T10:17:27.185Z,81.25
2023-09-28T10:18:27.141Z,81.05
2023-09-28T10:19:27.100Z,80.65
2023-09-28T10:20:27.116Z,80.45
2023-09-28T10:21:27.066Z,80.95
2023-09-28T10:22:27.062Z,81.15
2023-09-28T10:23:27.097Z,81.95
2023-09-28T10:24:27.050Z,81.21
2023-09-28T10:25:27.029Z,81.61
2023-09-28T10:26:27.114Z,81.18
2023-09-28T10:27:27.043Z,78.92
2023-09-28T10:28:27.013Z,78.02
2023-09-28T10:29:27.016Z,77.22
2023-09-28T10:30:26.971Z,78.02
2023-09-28T10:31:28.613Z,78.72
2023-09-28T10:32:27.109Z,79.11
2023-09-28T10:33:26.955Z,78.42
2023-09-28T10:34:26.924Z,78.42
2023-09-28T10:35:27.011Z,78.42
2023-09-28T10:36:27.563Z,79.32
2023-09-28T10:37:26.888Z,79.72
2023-09-28T10:38:26.913Z,79.82
2023-09-28T10:39:26.880Z,79.41
2023-09-28T10:40:37.093Z,78.42
2023-09-28T10:41:26.874Z,78.22
2023-09-28T10:42:26.844Z,78.72
2023-09-28T10:43:26.829Z,79.41
2023-09-28T10:44:26.854Z,79.82
2023-09-28T10:45:26.803Z,79.61
2023-09-28T10:46:26.826Z,79.58
2023-09-28T10:47:27.053Z,79.68
2023-09-28T10:48:26.893Z,78.98
2023-09-28T10:49:26.769Z,78.58
2023-09-28T10:50:26.828Z,77.58
2023-09-28T10:51:26.733Z,77.38
2023-09-28T10:52:26.739Z,77.48
2023-09-28T10:53:26.749Z,77.78
2023-09-28T10:54:26.715Z,77.28
2023-09-28T10:55:26.687Z,77.78
2023-09-28T10:56:31.168Z,78.18
2023-09-28T10:57:26.674Z,77.18
2023-09-28T10:58:26.657Z,77.88
2023-09-28T10:59:26.664Z,77.58
2023-09-28T11:00:26.635Z,77.58
2023-09-28T11:01:26.647Z,77.98
2023-09-28T11:02:26.633Z,77.78
2023-09-28T11:03:26.647Z,78.18
2023-09-28T11:04:38.574Z,78.48
2023-09-28T11:05:26.801Z,78.48
2023-09-28T11:06:26.693Z,78.24
2023-09-28T11:07:26.556Z,78.88
2023-09-28T11:08:26.555Z,77.98
2023-09-28T11:09:26.543Z,77.78
2023-09-28T11:10:26.541Z,77.78
2023-09-28T11:11:26.576Z,77.74
2023-09-28T11:12:26.502Z,77.84
2023-09-28T11:13:26.493Z,77.34
2023-09-28T11:14:26.513Z,76.65
2023-09-28T11:15:26.471Z,76.65
2023-09-28T11:16:26.504Z,76.54
2023-09-28T11:17:26.506Z,77.14
2023-09-28T11:18:26.461Z,76.88
2023-09-28T11:19:26.422Z,77.08
2023-09-28T11:20:26.471Z,76.88
2023-09-28T11:21:26.415Z,77.12
2023-09-28T11:22:26.396Z,77.51
2023-09-28T11:23:26.450Z,78.22
2023-09-28T11:24:26.389Z,78.31
2023-09-28T11:25:43.106Z,77.32
2023-09-28T11:26:26.380Z,77.15
2023-09-28T11:27:26.337Z,77.95
2023-09-28T11:28:26.394Z,78.36
2023-09-28T11:29:26.395Z,77.86
2023-09-28T11:30:26.308Z,77.06
2023-09-28T11:31:26.372Z,77.15
2023-09-28T11:32:26.378Z,77.36
2023-09-28T11:33:26.272Z,77.45
2023-09-28T11:34:26.287Z,77.66
2023-09-28T11:35:26.534Z,77.19
2023-09-28T11:36:26.246Z,77.79
2023-09-28T11:37:26.237Z,77.69
2023-09-28T11:38:26.253Z,77.49
2023-09-28T11:39:26.216Z,77.49
2023-09-28T11:40:26.198Z,78.09
2023-09-28T11:41:26.199Z,79.05
2023-09-28T11:42:26.208Z,78.75
2023-09-28T11:43:26.172Z,79.16
2023-09-28T11:44:26.192Z,78.05
2023-09-28T11:45:26.140Z,78.16
2023-09-28T11:46:26.187Z,78.05
2023-09-28T11:47:26.167Z,77.06
2023-09-28T11:48:26.219Z,77.66
2023-09-28T11:49:26.109Z,78.02
2023-09-28T11:50:26.126Z,76.86
2023-09-28T11:51:26.068Z,77.36
2023-09-28T11:52:26.077Z,77.25
2023-09-28T11:53:26.083Z,77.06
2023-09-28T11:54:26.054Z,77.36
2023-09-28T11:55:26.044Z,77.86
2023-09-28T11:56:26.027Z,77.66
2023-09-28T11:57:26.056Z,77.75
2023-09-28T11:58:26.012Z,78.36
2023-09-28T11:59:26.045Z,77.86
2023-09-28T12:00:26.012Z,78.05
2023-09-28T12:01:26.148Z,78.42
2023-09-28T12:02:25.971Z,77.92
2023-09-28T12:03:25.961Z,77.92
2023-09-28T12:04:25.977Z,77.68
2023-09-28T12:05:26.697Z,76.68
2023-09-28T12:06:26.070Z,76.78
2023-09-28T12:07:26.956Z,77.38
2023-09-28T12:08:25.930Z,77.98
2023-09-28T12:09:25.875Z,78.34
2023-09-28T12:10:25.897Z,77.04
2023-09-28T12:11:25.880Z,77.34
2023-09-28T12:12:25.894Z,76.25
2023-09-28T12:13:25.852Z,76.65
2023-09-28T12:14:25.902Z,77.14
2023-09-28T12:15:25.812Z,76.54
2023-09-28T12:16:25.828Z,75.85
2023-09-28T12:17:26.212Z,76.25
2023-09-28T12:18:25.910Z,75.45
2023-09-28T12:19:25.798Z,75.68
2023-09-28T12:20:25.800Z,76.75
2023-09-28T12:21:25.733Z,76.95
2023-09-28T12:22:25.725Z,76.45
2023-09-28T12:23:25.741Z,75.95
2023-09-28T12:24:25.699Z,75.95
2023-09-28T12:25:25.704Z,76.04
2023-09-28T12:26:25.770Z,76.15
2023-09-28T12:27:25.664Z,76.75
2023-09-28T12:28:25.665Z,76.84
2023-09-28T12:29:25.686Z,75.65
2023-09-28T12:30:25.646Z,76.08
2023-09-28T12:31:25.624Z,76.68
2023-09-28T12:32:25.674Z,76.08
2023-09-28T12:33:25.640Z,76.38
2023-09-28T12:34:25.613Z,76.68
2023-09-28T12:35:25.619Z,77.28
2023-09-28T12:36:25.575Z,77.08
2023-09-28T12:37:25.566Z,76.95
2023-09-28T12:38:26.158Z,76.84
2023-09-28T12:39:25.559Z,77.34
2023-09-28T12:40:25.538Z,77.34
2023-09-28T12:41:25.533Z,77.25
2023-09-28T12:42:25.512Z,76.45
2023-09-28T12:43:25.518Z,76.58
2023-09-28T12:44:25.532Z,76.58
2023-09-28T12:45:25.483Z,76.68
2023-09-28T12:46:25.492Z,77.48
2023-09-28T12:47:25.549Z,77.48
2023-09-28T12:48:28.014Z,77.78
2023-09-28T12:49:25.421Z,77.68
2023-09-28T12:50:25.432Z,78.28
2023-09-28T12:51:25.433Z,77.88
2023-09-28T12:52:25.396Z,78.24
2023-09-28T12:53:25.660Z,78.14